createdAt,value
2022-08-11T00:01:17.484Z,21.10
2022-08-11T00:03:48.712Z,21.10
2022-08-11T00:06:24.140Z,21.10
2022-08-11T00:08:51.758Z,21.10
2022-08-11T00:11:19.877Z,21.00
2022-08-11T00:13:49.895Z,20.90
2022-08-11T00:16:16.688Z,20.90
2022-08-11T00:18:46.865Z,20.90
2022-08-11T00:21:15.007Z,20.80
2022-08-11T00:23:47.813Z,20.80
2022-08-11T00:26:16.786Z,20.70
2022-08-11T00:28:43.711Z,20.70
2022-08-11T00:31:23.244Z,20.70
2022-08-11T00:33:51.670Z,20.70
2022-08-11T00:36:25.292Z,20.60
2022-08-11T00:38:53.833Z,20.60
2022-08-11T00:41:39.326Z,20.50
2022-08-11T00:44:43.762Z,20.50
2022-08-11T00:47:38.991Z,20.50
2022-08-11T00:50:26.687Z,20.40
2022-08-11T00:53:15.307Z,20.40
2022-08-11T00:56:17.018Z,20.40
2022-08-11T00:59:34.495Z,20.40
2022-08-11T01:02:11.211Z,20.30
2022-08-11T01:05:13.484Z,20.30
2022-08-11T01:08:01.582Z,20.20
2022-08-11T01:11:03.838Z,20.20
2022-08-11T01:13:43.168Z,20.20
2022-08-11T01:16:31.155Z,20.20
2022-08-11T01:19:19.846Z,20.20
2022-08-11T01:22:08.269Z,20.10
2022-08-11T01:24:50.223Z,20.10
2022-08-11T01:27:41.848Z,20.10
2022-08-11T01:30:52.314Z,20.00
2022-08-11T01:33:59.525Z,20.00
2022-08-11T01:36:56.589Z,20.00
2022-08-11T01:39:45.614Z,19.90
2022-08-11T01:42:37.295Z,19.90
2022-08-11T01:45:29.344Z,19.90
2022-08-11T01:48:20.967Z,19.90
2022-08-11T01:51:17.617Z,19.80
2022-08-11T01:54:11.985Z,19.80
2022-08-11T01:57:10.131Z,19.70
2022-08-11T02:00:02.551Z,19.70
2022-08-11T02:02:56.999Z,19.60
2022-08-11T02:05:45.829Z,19.60
2022-08-11T02:08:33.290Z,19.60
2022-08-11T02:11:35.614Z,19.50
2022-08-11T02:14:28.680Z,19.50
2022-08-11T02:17:34.658Z,19.50
2022-08-11T02:20:43.344Z,19.40
2022-08-11T02:24:04.975Z,19.40
2022-08-11T02:26:41.292Z,19.40
2022-08-11T02:29:37.777Z,19.40
2022-08-11T02:32:30.303Z,19.30
2022-08-11T02:35:20.026Z,19.30
2022-08-11T02:38:11.465Z,19.20
2022-08-11T02:41:01.089Z,19.20
2022-08-11T02:43:52.790Z,19.20
2022-08-11T02:46:32.743Z,19.20
2022-08-11T02:49:30.984Z,19.20
2022-08-11T02:52:34.289Z,19.10
2022-08-11T02:55:56.259Z,19.10
2022-08-11T02:58:29.096Z,19.10
2022-08-11T03:01:24.514Z,19.00
2022-08-11T03:04:00.592Z,19.00
2022-08-11T03:06:35.603Z,19.00
2022-08-11T03:09:19.106Z,18.90
2022-08-11T03:12:37.268Z,18.90
2022-08-11T03:15:37.412Z,18.80
2022-08-11T03:18:33.094Z,18.80
2022-08-11T03:21:15.873Z,18.70
2022-08-11T03:24:05.026Z,18.70
2022-08-11T03:27:13.250Z,18.70
2022-08-11T03:30:01.570Z,18.70
2022-08-11T03:32:42.298Z,18.70
2022-08-11T03:35:11.476Z,18.60
2022-08-11T03:38:02.776Z,18.60
2022-08-11T03:42:03.453Z,18.60
2022-08-11T03:44:34.347Z,18.60
2022-08-11T03:47:15.214Z,18.60
2022-08-11T03:50:00.415Z,18.50
2022-08-11T03:52:42.185Z,18.50
2022-08-11T03:55:12.324Z,18.50
2022-08-11T03:58:16.921Z,18.50
2022-08-11T04:01:11.362Z,18.50
2022-08-11T04:04:03.271Z,18.40
2022-08-11T04:06:48.996Z,18.40
2022-08-11T04:09:24.988Z,18.40
2022-08-11T04:12:36.501Z,18.40
2022-08-11T04:15:50.678Z,18.40
2022-08-11T04:18:36.102Z,18.40
2022-08-11T04:21:03.146Z,18.40
2022-08-11T04:24:36.062Z,18.40
2022-08-11T04:26:56.608Z,18.40
2022-08-11T04:30:03.269Z,18.40
2022-08-11T04:32:56.193Z,18.30
2022-08-11T04:35:48.638Z,18.40
2022-08-11T04:38:36.740Z,18.30
2022-08-11T04:42:13.216Z,18.30
2022-08-11T04:45:12.048Z,18.40
2022-08-11T04:48:16.673Z,18.60
2022-08-11T04:51:33.139Z,18.60
2022-08-11T04:54:45.651Z,18.50
2022-08-11T04:57:45.823Z,18.40
2022-08-11T05:00:32.778Z,18.40
2022-08-11T05:03:08.404Z,18.40
2022-08-11T05:06:14.737Z,18.40
2022-08-11T05:09:03.045Z,18.40
2022-08-11T05:11:45.175Z,18.40
2022-08-11T05:14:30.319Z,18.30
2022-08-11T05:17:18.836Z,18.40
2022-08-11T05:20:07.628Z,18.40
2022-08-11T05:22:55.175Z,18.40
2022-08-11T05:26:44.984Z,18.30
2022-08-11T05:29:20.283Z,18.40
2022-08-11T05:32:15.443Z,18.50
2022-08-11T05:34:59.776Z,18.50
2022-08-11T05:37:29.617Z,18.60
2022-08-11T05:40:26.815Z,18.70
2022-08-11T05:43:24.064Z,18.70
2022-08-11T05:46:21.138Z,18.70
2022-08-11T05:49:07.751Z,18.90
2022-08-11T05:51:57.073Z,18.80
2022-08-11T05:54:46.648Z,18.90
2022-08-11T05:57:48.986Z,19.00
2022-08-11T06:00:12.403Z,19.00
2022-08-11T06:02:43.414Z,19.00
2022-08-11T06:05:11.281Z,19.10
2022-08-11T06:07:49.139Z,19.10
2022-08-11T06:10:47.040Z,19.10
2022-08-11T06:13:18.256Z,19.10
2022-08-11T06:15:47.937Z,19.20
2022-08-11T06:18:16.082Z,19.30
2022-08-11T06:20:56.749Z,19.30
2022-08-11T06:23:25.896Z,19.40
2022-08-11T06:25:56.312Z,19.40
2022-08-11T06:28:33.754Z,19.40
2022-08-11T06:31:02.479Z,19.50
2022-08-11T06:33:45.290Z,19.50
2022-08-11T06:36:30.938Z,19.50
2022-08-11T06:39:20.497Z,19.60
2022-08-11T06:41:53.467Z,19.60
2022-08-11T06:44:40.268Z,19.70
2022-08-11T06:47:12.809Z,19.70
2022-08-11T06:50:06.511Z,19.80
2022-08-11T06:52:36.982Z,19.90
2022-08-11T06:55:57.812Z,20.00
2022-08-11T06:58:54.070Z,20.00
2022-08-11T07:01:55.912Z,20.10
2022-08-11T07:04:43.382Z,20.10
2022-08-11T07:07:50.175Z,20.20
2022-08-11T07:10:57.223Z,20.30
2022-08-11T07:13:45.901Z,20.40
2022-08-11T07:16:24.360Z,20.50
2022-08-11T07:19:16.709Z,20.50
2022-08-11T07:22:04.714Z,20.60
2022-08-11T07:25:21.814Z,20.70
2022-08-11T07:28:15.011Z,20.90
2022-08-11T07:30:42.647Z,21.00
2022-08-11T07:33:21.120Z,21.20
2022-08-11T07:36:01.062Z,21.30
2022-08-11T07:38:47.195Z,21.30
2022-08-11T07:41:16.679Z,21.50
2022-08-11T07:43:49.131Z,21.60
2022-08-11T07:46:36.134Z,21.60
2022-08-11T07:49:24.302Z,21.70
2022-08-11T07:52:10.964Z,21.80
2022-08-11T07:54:39.446Z,21.80
2022-08-11T07:57:50.116Z,21.90
2022-08-11T08:00:38.085Z,21.90
2022-08-11T08:03:25.649Z,22.00
2022-08-11T08:06:35.545Z,22.10
2022-08-11T08:09:17.873Z,22.30
2022-08-11T08:12:05.267Z,22.40
2022-08-11T08:14:51.954Z,22.40
2022-08-11T08:17:40.140Z,22.60
2022-08-11T08:20:11.459Z,22.70
2022-08-11T08:22:40.139Z,22.80
2022-08-11T08:25:09.918Z,23.00
2022-08-11T08:27:38.615Z,23.10
2022-08-11T08:30:25.862Z,23.20
2022-08-11T08:32:53.653Z,23.30
2022-08-11T08:35:21.821Z,23.50
2022-08-11T08:37:51.330Z,23.70
2022-08-11T08:40:18.894Z,23.80
2022-08-11T08:43:02.597Z,23.90
2022-08-11T08:45:34.249Z,23.90
2022-08-11T08:48:10.983Z,24.00
2022-08-11T08:51:02.946Z,24.10
2022-08-11T08:53:35.091Z,24.30
2022-08-11T08:56:03.150Z,24.40
2022-08-11T08:58:31.162Z,24.40
2022-08-11T09:01:01.890Z,24.50
2022-08-11T09:03:41.861Z,24.70
2022-08-11T09:06:17.234Z,24.80
2022-08-11T09:08:45.528Z,24.90
2022-08-11T09:11:33.306Z,24.90
2022-08-11T09:14:05.639Z,25.00
2022-08-11T09:16:34.631Z,25.00
2022-08-11T09:19:02.304Z,25.10
2022-08-11T09:21:39.765Z,25.20
2022-08-11T09:24:34.322Z,25.40
2022-08-11T09:27:08.327Z,25.50
2022-08-11T09:29:37.913Z,25.60
2022-08-11T09:32:07.106Z,25.70
2022-08-11T09:34:36.636Z,25.80
2022-08-11T09:37:29.035Z,25.90
2022-08-11T09:40:29.442Z,26.00
2022-08-11T09:43:36.731Z,26.20
2022-08-11T09:46:05.439Z,26.40
2022-08-11T09:48:38.558Z,26.50
2022-08-11T09:51:08.097Z,26.60
2022-08-11T09:53:41.552Z,26.70
2022-08-11T09:56:35.893Z,26.80
2022-08-11T09:59:04.563Z,26.90
2022-08-11T10:01:35.962Z,27.00
2022-08-11T10:04:18.736Z,27.00
2022-08-11T10:07:10.493Z,27.20
2022-08-11T10:09:45.739Z,27.40
2022-08-11T10:12:27.181Z,27.40
2022-08-11T10:15:39.590Z,27.60
2022-08-11T10:18:42.299Z,27.60
2022-08-11T10:21:35.976Z,27.80
2022-08-11T10:24:23.532Z,27.90
2022-08-11T10:26:55.693Z,28.00
2022-08-11T10:29:49.813Z,28.10
2022-08-11T10:32:57.493Z,28.30
2022-08-11T10:35:27.714Z,28.20
2022-08-11T10:38:06.060Z,28.20
2022-08-11T10:40:46.856Z,28.30
2022-08-11T10:44:01.896Z,28.40
2022-08-11T10:46:30.000Z,28.60
2022-08-11T10:48:58.274Z,28.70
2022-08-11T10:51:51.203Z,28.90
2022-08-11T10:54:39.369Z,29.00
2022-08-11T10:57:25.109Z,29.10
2022-08-11T10:59:56.073Z,29.10
2022-08-11T11:02:23.796Z,29.10
2022-08-11T11:04:59.527Z,29.20
2022-08-11T11:08:38.768Z,29.20
2022-08-11T11:11:07.838Z,29.40
2022-08-11T11:13:55.570Z,29.50
2022-08-11T11:16:28.240Z,29.60
2022-08-11T11:19:00.691Z,29.80
2022-08-11T11:21:28.665Z,29.80
2022-08-11T11:24:17.511Z,29.90
2022-08-11T11:26:50.362Z,29.80
2022-08-11T11:29:25.228Z,29.60
2022-08-11T11:32:27.778Z,29.50
2022-08-11T11:35:15.659Z,29.70
2022-08-11T11:37:58.502Z,29.60
2022-08-11T11:40:32.874Z,29.70
2022-08-11T11:43:01.049Z,30.00
2022-08-11T11:45:28.446Z,30.20
2022-08-11T11:47:59.036Z,30.30
2022-08-11T11:50:37.175Z,30.50
2022-08-11T11:53:09.950Z,30.60
2022-08-11T11:55:37.959Z,30.80
2022-08-11T11:58:25.054Z,31.00
2022-08-11T12:01:12.297Z,30.80
2022-08-11T12:03:40.297Z,30.80
2022-08-11T12:06:09.362Z,30.90
2022-08-11T12:08:37.557Z,30.90
2022-08-11T12:11:27.509Z,30.70
2022-08-11T12:13:59.070Z,30.60
2022-08-11T12:16:35.327Z,30.80
2022-08-11T12:19:05.865Z,31.10
2022-08-11T12:21:34.327Z,31.30
2022-08-11T12:24:21.358Z,31.40
2022-08-11T12:27:01.426Z,31.50
2022-08-11T12:29:41.117Z,31.60
2022-08-11T12:32:12.559Z,31.60
2022-08-11T12:34:39.440Z,31.60
2022-08-11T12:37:13.003Z,31.40
2022-08-11T12:40:16.752Z,31.60
2022-08-11T12:43:21.117Z,31.80
2022-08-11T12:45:58.429Z,32.00
2022-08-11T12:49:00.343Z,32.10
2022-08-11T12:52:06.743Z,32.00
2022-08-11T12:55:02.937Z,31.90
2022-08-11T12:57:57.744Z,32.20
2022-08-11T13:00:45.200Z,32.20
2022-08-11T13:03:33.041Z,32.10
2022-08-11T13:06:04.705Z,32.10
2022-08-11T13:08:35.642Z,32.20
2022-08-11T13:11:23.280Z,32.20
2022-08-11T13:13:57.014Z,32.20
2022-08-11T13:16:56.680Z,32.10
2022-08-11T13:19:24.142Z,32.40
2022-08-11T13:21:52.944Z,32.50
2022-08-11T13:24:21.693Z,32.70
2022-08-11T13:26:50.581Z,32.90
2022-08-11T13:29:22.718Z,32.90
2022-08-11T13:31:51.400Z,33.10
2022-08-11T13:34:20.465Z,33.20
2022-08-11T13:36:54.258Z,33.20
2022-08-11T13:39:24.544Z,33.30
2022-08-11T13:41:57.153Z,33.30
2022-08-11T13:44:27.503Z,33.40
2022-08-11T13:47:06.666Z,33.40
2022-08-11T13:49:40.208Z,33.50
2022-08-11T13:52:14.592Z,33.60
2022-08-11T13:54:43.076Z,33.70
2022-08-11T13:57:13.692Z,33.90
2022-08-11T14:00:09.680Z,33.80
2022-08-11T14:02:42.831Z,34.00
2022-08-11T14:05:16.075Z,34.10
2022-08-11T14:07:52.676Z,34.10
2022-08-11T14:10:28.858Z,34.30
2022-08-11T14:13:19.939Z,34.50
2022-08-11T14:15:49.196Z,34.50
2022-08-11T14:18:22.776Z,34.20
2022-08-11T14:21:12.824Z,34.10
2022-08-11T14:23:42.429Z,34.30
2022-08-11T14:26:27.132Z,34.10
2022-08-11T14:28:59.368Z,34.10
2022-08-11T14:31:28.499Z,34.10
2022-08-11T14:34:00.287Z,34.30
2022-08-11T14:36:36.028Z,34.00
2022-08-11T14:39:13.506Z,34.00
2022-08-11T14:42:12.666Z,34.00
2022-08-11T14:45:06.526Z,34.00
2022-08-11T14:47:40.448Z,34.20
2022-08-11T14:50:14.125Z,34.30
2022-08-11T14:53:01.601Z,34.30
2022-08-11T14:55:50.102Z,34.30
2022-08-11T14:58:20.453Z,34.50
2022-08-11T15:00:50.785Z,34.60
2022-08-11T15:03:18.071Z,34.70
2022-08-11T15:05:54.218Z,34.60
2022-08-11T15:08:48.834Z,34.60
2022-08-11T15:11:36.477Z,34.50
2022-08-11T15:14:06.071Z,34.60
2022-08-11T15:16:51.890Z,34.50
2022-08-11T15:19:21.275Z,34.60
2022-08-11T15:22:08.398Z,34.50
2022-08-11T15:24:36.587Z,34.70
2022-08-11T15:27:33.329Z,34.70
2022-08-11T15:30:33.535Z,34.90
2022-08-11T15:33:25.614Z,34.80
2022-08-11T15:36:12.826Z,35.00
2022-08-11T15:38:49.210Z,35.20
2022-08-11T15:41:58.861Z,35.00
2022-08-11T15:45:04.874Z,34.80
2022-08-11T15:48:00.671Z,34.80
2022-08-11T15:50:38.106Z,34.60
2022-08-11T15:53:11.923Z,34.70
2022-08-11T15:55:39.729Z,34.90
2022-08-11T15:58:35.849Z,35.10
2022-08-11T16:01:23.233Z,35.40
2022-08-11T16:04:13.141Z,35.30
2022-08-11T16:06:49.900Z,35.20
2022-08-11T16:09:21.952Z,35.40
2022-08-11T16:11:51.383Z,35.40
2022-08-11T16:14:38.790Z,35.40
2022-08-11T16:17:09.169Z,35.40
2022-08-11T16:19:37.728Z,35.50
2022-08-11T16:22:10.171Z,35.30
2022-08-11T16:27:03.002Z,35.00
2022-08-11T16:27:40.302Z,35.00
2022-08-11T16:30:08.792Z,34.90
2022-08-11T16:32:39.547Z,35.00
2022-08-11T16:35:39.628Z,35.10
2022-08-11T16:38:27.013Z,35.00
2022-08-11T16:40:56.412Z,34.90
2022-08-11T16:43:44.749Z,34.90
2022-08-11T16:46:32.535Z,34.90
2022-08-11T16:49:03.271Z,34.80
2022-08-11T16:51:31.814Z,34.70
2022-08-11T16:54:04.768Z,34.70
2022-08-11T16:56:47.973Z,34.30
2022-08-11T16:59:33.669Z,34.00
2022-08-11T17:02:08.145Z,33.50
2022-08-11T17:05:08.736Z,33.00
2022-08-11T17:07:58.035Z,32.60
2022-08-11T17:10:54.790Z,32.20
2022-08-11T17:13:31.822Z,31.90
2022-08-11T17:16:08.972Z,31.60
2022-08-11T17:18:51.208Z,31.40
2022-08-11T17:21:23.993Z,31.20
2022-08-11T17:23:55.436Z,31.00
2022-08-11T17:26:52.101Z,30.90
2022-08-11T17:29:28.776Z,30.70
2022-08-11T17:32:15.805Z,30.60
2022-08-11T17:35:03.184Z,30.40
2022-08-11T17:37:33.100Z,30.40
2022-08-11T17:40:05.118Z,30.20
2022-08-11T17:42:51.677Z,30.10
2022-08-11T17:45:39.346Z,30.00
2022-08-11T17:48:25.621Z,29.90
2022-08-11T17:51:05.259Z,29.80
2022-08-11T17:54:10.240Z,29.60
2022-08-11T17:57:01.591Z,29.60
2022-08-11T17:59:49.186Z,29.40
2022-08-11T18:02:44.789Z,29.40
2022-08-11T18:05:13.746Z,29.20
2022-08-11T18:08:04.486Z,29.20
2022-08-11T18:10:51.668Z,29.10
2022-08-11T18:13:40.775Z,29.00
2022-08-11T18:16:28.058Z,28.90
2022-08-11T18:19:14.232Z,28.90
2022-08-11T18:22:14.906Z,28.80
2022-08-11T18:25:27.177Z,28.60
2022-08-11T18:28:14.972Z,28.60
2022-08-11T18:31:04.369Z,28.50
2022-08-11T18:34:13.521Z,28.40
2022-08-11T18:37:29.332Z,28.30
2022-08-11T18:40:24.358Z,28.20
2022-08-11T18:43:13.889Z,28.10
2022-08-11T18:46:06.423Z,28.00
2022-08-11T18:48:56.153Z,27.90
2022-08-11T18:51:43.776Z,27.70
2022-08-11T18:54:31.326Z,27.50
2022-08-11T18:57:20.771Z,27.30
2022-08-11T19:00:07.797Z,27.20
2022-08-11T19:02:57.374Z,27.10
2022-08-11T19:06:06.051Z,27.00
2022-08-11T19:08:56.271Z,26.90
2022-08-11T19:11:43.906Z,26.80
2022-08-11T19:14:33.366Z,26.70
2022-08-11T19:17:44.425Z,26.60
2022-08-11T19:20:33.535Z,26.50
2022-08-11T19:23:21.412Z,26.40
2022-08-11T19:26:07.871Z,26.30
2022-08-11T19:28:55.916Z,26.20
2022-08-11T19:31:44.814Z,26.10
2022-08-11T19:34:37.445Z,26.00
2022-08-11T19:37:25.554Z,25.90
2022-08-11T19:40:32.876Z,25.90
2022-08-11T19:43:25.994Z,25.80
2022-08-11T19:46:15.083Z,25.70
2022-08-11T19:49:03.695Z,25.60
2022-08-11T19:51:53.446Z,25.50
2022-08-11T19:54:42.282Z,25.50
2022-08-11T19:57:27.763Z,25.40
2022-08-11T20:00:13.641Z,25.30
2022-08-11T20:02:59.353Z,25.30
2022-08-11T20:05:55.491Z,25.20
2022-08-11T20:08:48.015Z,25.10
2022-08-11T20:11:35.893Z,25.10
2022-08-11T20:14:22.793Z,25.00
2022-08-11T20:17:10.564Z,25.00
2022-08-11T20:22:50.113Z,24.90
2022-08-11T20:25:37.929Z,24.90
2022-08-11T20:28:25.141Z,24.80
2022-08-11T20:31:12.647Z,24.80
2022-08-11T20:33:59.501Z,24.70
2022-08-11T20:36:54.101Z,24.70
2022-08-11T20:39:43.063Z,24.70
2022-08-11T20:42:30.941Z,24.60
2022-08-11T20:45:23.929Z,24.60
2022-08-11T20:48:14.650Z,24.50
2022-08-11T20:51:06.377Z,24.50
2022-08-11T20:53:56.098Z,24.50
2022-08-11T20:56:43.120Z,24.40
2022-08-11T20:59:33.386Z,24.40
2022-08-11T21:02:35.658Z,24.30
2022-08-11T21:06:09.030Z,24.30
2022-08-11T21:08:27.624Z,24.30
2022-08-11T21:11:14.133Z,24.20
2022-08-11T21:14:13.683Z,24.20
2022-08-11T21:17:26.919Z,24.10
2022-08-11T21:20:13.099Z,24.10
2022-08-11T21:23:35.052Z,24.10
2022-08-11T21:26:26.884Z,24.10
2022-08-11T21:29:16.639Z,24.00
2022-08-11T21:32:03.261Z,24.00
2022-08-11T21:34:51.066Z,24.00
2022-08-11T21:37:37.950Z,24.00
2022-08-11T21:40:25.581Z,24.00
2022-08-11T21:43:12.701Z,23.90
2022-08-11T21:45:59.673Z,23.90
2022-08-11T21:48:46.078Z,23.80
2022-08-11T21:51:31.594Z,23.80
2022-08-11T21:54:19.595Z,23.70
2022-08-11T21:57:06.363Z,23.70
2022-08-11T22:00:10.384Z,23.70
2022-08-11T22:02:57.170Z,23.60
2022-08-11T22:05:44.759Z,23.60
2022-08-11T22:08:31.594Z,23.60
2022-08-11T22:11:32.446Z,23.50
2022-08-11T22:14:19.777Z,23.40
2022-08-11T22:17:05.132Z,23.40
2022-08-11T22:19:51.107Z,23.40
2022-08-11T22:22:51.265Z,23.30
2022-08-11T22:25:51.045Z,23.30
2022-08-11T22:28:40.968Z,23.30
2022-08-11T22:31:27.651Z,23.20
2022-08-11T22:34:13.622Z,23.20
2022-08-11T22:37:01.288Z,23.10
2022-08-11T22:40:01.691Z,23.10
2022-08-11T22:42:52.479Z,23.00
2022-08-11T22:45:38.697Z,23.00
2022-08-11T22:48:26.563Z,23.00
2022-08-11T22:51:13.709Z,23.00
2022-08-11T22:54:00.241Z,22.90
2022-08-11T22:56:48.376Z,22.90
2022-08-11T22:59:36.184Z,22.80
2022-08-11T23:02:24.238Z,22.80
2022-08-11T23:05:10.770Z,22.80
2022-08-11T23:07:57.946Z,22.70
2022-08-11T23:10:44.382Z,22.70
2022-08-11T23:13:29.884Z,22.70
2022-08-11T23:16:15.462Z,22.60
2022-08-11T23:19:01.782Z,22.60
2022-08-11T23:21:48.372Z,22.60
2022-08-11T23:24:35.346Z,22.50
2022-08-11T23:27:21.629Z,22.50
2022-08-11T23:30:11.308Z,22.50
2022-08-11T23:32:59.173Z,22.40
2022-08-11T23:35:51.935Z,22.40
2022-08-11T23:38:40.723Z,22.40
2022-08-11T23:41:26.234Z,22.30
2022-08-11T23:44:13.099Z,22.30
2022-08-11T23:47:00.013Z,22.30
2022-08-11T23:49:46.694Z,22.20
2022-08-11T23:52:33.494Z,22.20
2022-08-11T23:55:19.150Z,22.20
2022-08-11T23:58:04.698Z,22.20
